createdAt,value
2023-03-18T00:04:13.714Z,57.76
2023-03-18T00:09:15.925Z,57.84
2023-03-18T00:14:19.696Z,57.88
2023-03-18T00:19:22.095Z,57.99
2023-03-18T00:24:25.299Z,57.90
2023-03-18T00:29:27.496Z,58.13
2023-03-18T00:34:29.693Z,58.13
2023-03-18T00:39:33.286Z,58.27
2023-03-18T00:44:35.556Z,58.30
2023-03-18T00:49:38.149Z,58.16
2023-03-18T00:54:40.408Z,58.15
2023-03-18T01:00:01.524Z,58.22
2023-03-18T01:05:05.852Z,58.43
2023-03-18T01:10:09.467Z,58.38
2023-03-18T01:15:14.624Z,58.52
2023-03-18T01:20:19.746Z,58.43
2023-03-18T01:25:26.131Z,58.35
2023-03-18T01:30:31.097Z,58.38
2023-03-18T01:35:35.998Z,58.69
2023-03-18T01:40:41.037Z,58.60
2023-03-18T01:45:54.590Z,58.62
2023-03-18T01:51:01.032Z,58.49
2023-03-18T01:56:04.164Z,58.46
2023-03-18T02:01:33.820Z,58.84
2023-03-18T02:06:39.861Z,58.70
2023-03-18T02:11:45.085Z,58.67
2023-03-18T02:16:54.206Z,58.57
2023-03-18T02:22:14.039Z,59.22
2023-03-18T02:27:21.989Z,59.30
2023-03-18T02:32:29.550Z,59.43
2023-03-18T02:37:31.777Z,59.27
2023-03-18T02:42:34.914Z,59.62
2023-03-18T02:47:38.814Z,59.67
2023-03-18T02:52:41.085Z,59.72
2023-03-18T02:57:43.392Z,59.70
2023-03-18T03:02:45.771Z,59.59
2023-03-18T03:07:48.348Z,60.05
2023-03-18T03:12:51.714Z,59.74
2023-03-18T03:17:55.537Z,59.96
2023-03-18T03:22:58.209Z,60.31
2023-03-18T03:28:00.591Z,60.44
2023-03-18T03:33:02.985Z,60.42
2023-03-18T03:38:05.912Z,60.57
2023-03-18T03:43:08.168Z,60.51
2023-03-18T03:48:10.468Z,60.69
2023-03-18T03:53:12.734Z,60.76
2023-03-18T03:58:15.375Z,60.72
2023-03-18T04:03:18.977Z,60.59
2023-03-18T04:08:21.974Z,60.62
2023-03-18T04:13:24.983Z,60.94
2023-03-18T04:18:28.700Z,61.00
2023-03-18T04:23:33.339Z,61.10
2023-03-18T04:28:35.630Z,61.19
2023-03-18T04:33:40.090Z,61.03
2023-03-18T04:38:42.543Z,61.15
2023-03-18T04:43:45.814Z,61.27
2023-03-18T04:48:48.216Z,61.34
2023-03-18T04:53:50.976Z,61.27
2023-03-18T04:58:53.515Z,61.63
2023-03-18T05:04:02.193Z,61.67
2023-03-18T05:09:13.584Z,61.71
2023-03-18T05:14:17.610Z,62.23
2023-03-18T05:19:22.760Z,61.69
2023-03-18T05:24:33.516Z,61.59
2023-03-18T05:29:38.754Z,61.21
2023-03-18T05:34:47.734Z,61.03
2023-03-18T05:39:50.805Z,60.68
2023-03-18T05:44:56.845Z,60.02
2023-03-18T05:50:01.893Z,59.76
2023-03-18T05:55:06.415Z,59.21
2023-03-18T06:00:13.792Z,58.86
2023-03-18T06:05:21.406Z,58.31
2023-03-18T06:10:25.412Z,58.16
2023-03-18T06:15:28.238Z,57.90
2023-03-18T06:20:32.517Z,57.37
2023-03-18T06:25:35.255Z,57.07
2023-03-18T06:30:37.833Z,56.79
2023-03-18T06:35:40.894Z,56.18
2023-03-18T06:40:46.748Z,55.88
2023-03-18T06:45:49.265Z,55.49
2023-03-18T06:50:51.684Z,55.16
2023-03-18T06:56:02.578Z,54.45
2023-03-18T07:01:12.895Z,53.72
2023-03-18T07:06:19.512Z,53.94
2023-03-18T07:11:23.438Z,53.72
2023-03-18T07:16:30.947Z,53.28
2023-03-18T07:21:34.222Z,52.54
2023-03-18T07:26:38.684Z,52.13
2023-03-18T07:31:44.702Z,51.55
2023-03-18T07:36:47.186Z,50.84
2023-03-18T07:41:51.908Z,49.80
2023-03-18T07:47:00.361Z,50.08
2023-03-18T07:52:02.866Z,49.88
2023-03-18T07:57:05.650Z,48.50
2023-03-18T08:02:09.191Z,47.53
2023-03-18T08:07:11.864Z,48.13
2023-03-18T08:12:15.306Z,47.10
2023-03-18T08:17:19.226Z,46.65
2023-03-18T08:22:21.789Z,46.65
2023-03-18T08:27:25.473Z,45.44
2023-03-18T08:32:28.286Z,44.36
2023-03-18T08:37:30.738Z,44.23
2023-03-18T08:42:33.090Z,43.87
2023-03-18T08:47:35.463Z,43.51
2023-03-18T08:52:41.508Z,43.28
2023-03-18T08:57:43.785Z,42.78
2023-03-18T09:02:46.473Z,42.47
2023-03-18T09:07:48.694Z,41.59
2023-03-18T09:12:51.095Z,41.44
2023-03-18T09:18:09.971Z,41.23
2023-03-18T09:23:14.297Z,41.07
2023-03-18T09:28:16.928Z,41.12
2023-03-18T09:33:19.854Z,39.81
2023-03-18T09:38:22.778Z,40.19
2023-03-18T09:43:29.698Z,40.00
2023-03-18T09:48:44.468Z,38.47
2023-03-18T09:53:54.802Z,38.06
2023-03-18T09:59:07.641Z,37.91
2023-03-18T10:04:20.983Z,36.70
2023-03-18T10:09:34.675Z,35.55
2023-03-18T10:14:49.564Z,33.86
2023-03-18T10:20:04.161Z,35.77
2023-03-18T10:25:29.610Z,35.66
2023-03-18T10:30:53.455Z,34.60
2023-03-18T10:36:02.309Z,33.62
2023-03-18T10:41:17.815Z,32.76
2023-03-18T10:46:22.228Z,35.18
2023-03-18T10:51:40.413Z,34.05
2023-03-18T10:56:43.239Z,34.83
2023-03-18T11:01:47.786Z,34.13
2023-03-18T11:06:57.958Z,32.68
2023-03-18T11:12:26.012Z,32.75
2023-03-18T11:17:37.138Z,32.86
2023-03-18T11:22:45.333Z,32.68
2023-03-18T11:27:53.355Z,33.18
2023-03-18T11:33:04.441Z,33.28
2023-03-18T11:38:07.785Z,34.03
2023-03-18T11:43:20.575Z,33.00
2023-03-18T11:48:37.291Z,32.63
2023-03-18T11:53:47.220Z,32.57
2023-03-18T11:59:27.343Z,33.10
2023-03-18T12:04:45.903Z,33.87
2023-03-18T12:10:00.764Z,32.48
2023-03-18T12:15:22.075Z,33.54
2023-03-18T12:20:33.691Z,35.35
2023-03-18T12:26:10.691Z,33.13
2023-03-18T12:31:30.929Z,33.63
2023-03-18T12:36:50.457Z,33.95
2023-03-18T12:41:58.863Z,35.14
2023-03-18T12:47:16.929Z,34.81
2023-03-18T12:52:44.435Z,33.18
2023-03-18T12:57:50.779Z,34.47
2023-03-18T13:03:00.557Z,33.99
2023-03-18T13:08:36.953Z,34.10
2023-03-18T13:13:44.237Z,33.96
2023-03-18T13:18:51.925Z,35.22
2023-03-18T13:24:14.106Z,35.70
2023-03-18T13:29:45.154Z,33.53
2023-03-18T13:35:26.233Z,35.54
2023-03-18T13:40:39.967Z,33.45
2023-03-18T13:45:46.880Z,35.26
2023-03-18T13:50:51.709Z,35.48
2023-03-18T13:56:03.855Z,34.76
2023-03-18T14:01:28.888Z,35.20
2023-03-18T14:06:37.440Z,33.32
2023-03-18T14:11:50.604Z,35.01
2023-03-18T14:16:53.554Z,36.16
2023-03-18T14:22:07.796Z,34.44
2023-03-18T14:27:17.746Z,36.65
2023-03-18T14:32:23.411Z,35.72
2023-03-18T14:37:29.711Z,36.35
2023-03-18T14:42:37.427Z,36.52
2023-03-18T14:47:52.606Z,35.63
2023-03-18T14:53:21.027Z,36.63
2023-03-18T14:58:24.484Z,38.11
2023-03-18T15:03:31.527Z,38.10
2023-03-18T15:08:48.265Z,37.37
2023-03-18T15:13:54.893Z,37.87
2023-03-18T15:18:57.181Z,38.91
2023-03-18T15:24:04.957Z,38.27
2023-03-18T15:29:26.023Z,38.62
2023-03-18T15:34:31.089Z,39.32
2023-03-18T15:39:37.879Z,39.63
2023-03-18T15:44:40.900Z,39.78
2023-03-18T15:49:50.773Z,39.29
2023-03-18T15:54:53.756Z,40.19
2023-03-18T15:59:56.219Z,40.32
2023-03-18T16:05:20.947Z,39.79
2023-03-18T16:10:26.296Z,40.46
2023-03-18T16:15:30.024Z,41.38
2023-03-18T16:20:33.732Z,41.64
2023-03-18T16:25:37.090Z,42.21
2023-03-18T16:30:41.070Z,42.36
2023-03-18T16:35:44.161Z,42.22
2023-03-18T16:40:47.031Z,42.63
2023-03-18T16:45:51.049Z,42.22
2023-03-18T16:50:53.692Z,42.19
2023-03-18T16:55:59.998Z,42.87
2023-03-18T17:01:06.546Z,43.78
2023-03-18T17:06:10.141Z,43.70
2023-03-18T17:11:18.528Z,44.83
2023-03-18T17:16:21.401Z,44.60
2023-03-18T17:21:24.133Z,44.15
2023-03-18T17:26:28.907Z,43.65
2023-03-18T17:31:31.400Z,44.16
2023-03-18T17:36:33.896Z,44.17
2023-03-18T17:41:36.409Z,44.48
2023-03-18T17:46:38.971Z,45.49
2023-03-18T17:51:41.911Z,45.99
2023-03-18T17:56:44.860Z,46.31
2023-03-18T18:01:49.031Z,46.20
2023-03-18T18:06:51.810Z,45.69
2023-03-18T18:11:54.618Z,45.42
2023-03-18T18:16:57.288Z,45.38
2023-03-18T18:22:03.923Z,46.13
2023-03-18T18:27:06.583Z,46.04
2023-03-18T18:32:09.341Z,45.93
2023-03-18T18:37:12.292Z,46.01
2023-03-18T18:42:14.933Z,46.25
2023-03-18T18:47:20.821Z,47.88
2023-03-18T18:52:29.278Z,48.33
2023-03-18T18:57:32.487Z,49.40
2023-03-18T19:02:43.549Z,48.89
2023-03-18T19:07:46.826Z,49.29
2023-03-18T19:12:52.830Z,48.66
2023-03-18T19:17:55.507Z,48.25
2023-03-18T19:22:58.006Z,48.32
2023-03-18T19:28:01.005Z,48.75
2023-03-18T19:33:06.391Z,48.71
2023-03-18T19:38:16.490Z,48.31
2023-03-18T19:43:21.784Z,48.52
2023-03-18T19:48:25.202Z,48.88
2023-03-18T19:53:31.308Z,48.71
2023-03-18T19:58:33.758Z,48.92
2023-03-18T20:03:36.237Z,49.00
2023-03-18T20:08:41.270Z,49.31
2023-03-18T20:13:43.889Z,49.52
2023-03-18T20:18:46.555Z,50.00
2023-03-18T20:23:49.814Z,50.18
2023-03-18T20:28:55.829Z,50.55
2023-03-18T20:33:58.162Z,50.46
2023-03-18T20:39:04.330Z,50.44
2023-03-18T20:44:06.711Z,50.63
2023-03-18T20:49:09.807Z,50.74
2023-03-18T20:54:18.472Z,51.25
2023-03-18T20:59:21.102Z,51.31
2023-03-18T21:04:23.522Z,51.40
2023-03-18T21:09:25.948Z,51.61
2023-03-18T21:14:28.326Z,51.64
2023-03-18T21:19:30.714Z,51.57
2023-03-18T21:24:33.065Z,51.12
2023-03-18T21:29:35.422Z,51.03
2023-03-18T21:34:37.872Z,51.22
2023-03-18T21:39:41.760Z,51.25
2023-03-18T21:44:53.644Z,51.37
2023-03-18T21:49:55.932Z,51.50
2023-03-18T21:54:58.990Z,51.02
2023-03-18T22:00:01.543Z,51.17
2023-03-18T22:05:10.700Z,51.58
2023-03-18T22:10:21.670Z,51.41
2023-03-18T22:15:23.910Z,51.82
2023-03-18T22:20:26.794Z,51.94
2023-03-18T22:25:30.701Z,52.06
2023-03-18T22:30:33.918Z,52.07
2023-03-18T22:35:36.682Z,51.96
2023-03-18T22:40:40.053Z,51.95
2023-03-18T22:45:42.298Z,52.03
2023-03-18T22:50:44.685Z,52.09
2023-03-18T22:55:47.370Z,52.22
2023-03-18T23:00:50.302Z,52.06
2023-03-18T23:05:54.128Z,51.99
2023-03-18T23:10:57.710Z,52.31
2023-03-18T23:16:01.287Z,52.51
2023-03-18T23:21:04.166Z,52.42
2023-03-18T23:26:06.580Z,52.45
2023-03-18T23:31:09.596Z,52.33
2023-03-18T23:36:12.470Z,52.32
2023-03-18T23:41:15.002Z,51.98
2023-03-18T23:46:17.306Z,51.84
2023-03-18T23:51:19.671Z,51.95
2023-03-18T23:56:21.851Z,52.01
